sensor_id;sensor_type;location;lat;lon;timestamp;P1;durP1;ratioP1;P2;durP2;ratioP2
32407;SDS011;18869;55.970;37.502;2023-10-13T00:01:55;5.87;;;2.97;;
32407;SDS011;18869;55.970;37.502;2023-10-13T00:04:25;2.70;;;2.50;;
32407;SDS011;18869;55.970;37.502;2023-10-13T00:06:52;3.93;;;2.67;;
32407;SDS011;18869;55.970;37.502;2023-10-13T00:09:19;4.20;;;2.73;;
32407;SDS011;18869;55.970;37.502;2023-10-13T00:11:52;4.37;;;2.27;;
32407;SDS011;18869;55.970;37.502;2023-10-13T00:14:19;4.87;;;2.57;;
32407;SDS011;18869;55.970;37.502;2023-10-13T00:16:47;6.20;;;3.00;;
32407;SDS011;18869;55.970;37.502;2023-10-13T00:19:30;4.60;;;2.83;;
32407;SDS011;18869;55.970;37.502;2023-10-13T00:22:05;3.27;;;2.57;;
32407;SDS011;18869;55.970;37.502;2023-10-13T00:24:36;4.00;;;2.67;;
32407;SDS011;18869;55.970;37.502;2023-10-13T00:27:09;7.23;;;2.87;;
32407;SDS011;18869;55.970;37.502;2023-10-13T00:29:56;2.93;;;2.73;;
32407;SDS011;18869;55.970;37.502;2023-10-13T00:32:43;5.23;;;3.07;;
32407;SDS011;18869;55.970;37.502;2023-10-13T00:35:15;3.97;;;2.60;;
32407;SDS011;18869;55.970;37.502;2023-10-13T00:37:47;3.13;;;2.70;;
32407;SDS011;18869;55.970;37.502;2023-10-13T00:40:17;3.07;;;2.67;;
32407;SDS011;18869;55.970;37.502;2023-10-13T00:43:05;6.70;;;2.77;;
32407;SDS011;18869;55.970;37.502;2023-10-13T00:45:48;5.03;;;3.00;;
32407;SDS011;18869;55.970;37.502;2023-10-13T00:48:24;3.10;;;2.70;;
32407;SDS011;18869;55.970;37.502;2023-10-13T00:50:58;5.33;;;2.80;;
32407;SDS011;18869;55.970;37.502;2023-10-13T00:53:29;3.43;;;2.40;;
32407;SDS011;18869;55.970;37.502;2023-10-13T00:55:56;3.87;;;2.70;;
32407;SDS011;18869;55.970;37.502;2023-10-13T00:58:32;5.20;;;2.60;;
32407;SDS011;18869;55.970;37.502;2023-10-13T01:01:00;4.37;;;2.60;;
32407;SDS011;18869;55.970;37.502;2023-10-13T01:03:44;3.37;;;2.90;;
32407;SDS011;18869;55.970;37.502;2023-10-13T01:06:13;5.27;;;2.53;;
32407;SDS011;18869;55.970;37.502;2023-10-13T01:08:43;4.77;;;2.43;;
32407;SDS011;18869;55.970;37.502;2023-10-13T01:11:11;7.00;;;2.90;;
32407;SDS011;18869;55.970;37.502;2023-10-13T01:13:39;5.60;;;3.27;;
32407;SDS011;18869;55.970;37.502;2023-10-13T01:16:07;4.00;;;2.50;;
32407;SDS011;18869;55.970;37.502;2023-10-13T01:18:36;3.43;;;2.80;;
32407;SDS011;18869;55.970;37.502;2023-10-13T01:21:15;3.23;;;2.33;;
32407;SDS011;18869;55.970;37.502;2023-10-13T01:23:48;3.07;;;2.63;;
32407;SDS011;18869;55.970;37.502;2023-10-13T01:26:17;6.07;;;2.73;;
32407;SDS011;18869;55.970;37.502;2023-10-13T01:28:50;7.50;;;2.77;;
32407;SDS011;18869;55.970;37.502;2023-10-13T01:31:18;4.67;;;2.80;;
32407;SDS011;18869;55.970;37.502;2023-10-13T01:34:03;4.97;;;2.70;;
32407;SDS011;18869;55.970;37.502;2023-10-13T01:36:31;7.50;;;2.57;;
32407;SDS011;18869;55.970;37.502;2023-10-13T01:39:02;4.83;;;2.73;;
32407;SDS011;18869;55.970;37.502;2023-10-13T01:41:29;3.50;;;3.00;;
32407;SDS011;18869;55.970;37.502;2023-10-13T01:43:57;4.40;;;2.90;;
32407;SDS011;18869;55.970;37.502;2023-10-13T01:46:24;4.70;;;2.50;;
32407;SDS011;18869;55.970;37.502;2023-10-13T01:48:54;5.67;;;2.47;;
32407;SDS011;18869;55.970;37.502;2023-10-13T01:51:24;4.97;;;2.70;;
32407;SDS011;18869;55.970;37.502;2023-10-13T01:53:53;4.10;;;2.60;;
32407;SDS011;18869;55.970;37.502;2023-10-13T01:56:25;5.93;;;3.23;;
32407;SDS011;18869;55.970;37.502;2023-10-13T01:58:56;3.67;;;2.47;;
32407;SDS011;18869;55.970;37.502;2023-10-13T02:01:24;3.30;;;2.60;;
32407;SDS011;18869;55.970;37.502;2023-10-13T02:03:55;3.37;;;2.37;;
32407;SDS011;18869;55.970;37.502;2023-10-13T02:06:28;3.00;;;2.23;;
32407;SDS011;18869;55.970;37.502;2023-10-13T02:08:59;2.67;;;2.17;;
32407;SDS011;18869;55.970;37.502;2023-10-13T02:11:38;5.73;;;2.50;;
32407;SDS011;18869;55.970;37.502;2023-10-13T02:14:06;4.37;;;2.30;;
32407;SDS011;18869;55.970;37.502;2023-10-13T02:16:33;3.73;;;2.60;;
32407;SDS011;18869;55.970;37.502;2023-10-13T02:19:03;5.97;;;2.30;;
32407;SDS011;18869;55.970;37.502;2023-10-13T02:21:30;2.67;;;2.33;;
32407;SDS011;18869;55.970;37.502;2023-10-13T02:23:57;3.30;;;2.23;;
32407;SDS011;18869;55.970;37.502;2023-10-13T02:26:30;2.80;;;2.43;;
32407;SDS011;18869;55.970;37.502;2023-10-13T02:28:59;4.53;;;2.73;;
32407;SDS011;18869;55.970;37.502;2023-10-13T02:31:30;3.90;;;2.63;;
32407;SDS011;18869;55.970;37.502;2023-10-13T02:33:57;5.73;;;2.63;;
32407;SDS011;18869;55.970;37.502;2023-10-13T02:36:26;3.30;;;2.57;;
32407;SDS011;18869;55.970;37.502;2023-10-13T02:39:03;5.17;;;2.97;;
32407;SDS011;18869;55.970;37.502;2023-10-13T02:41:33;7.13;;;3.43;;
32407;SDS011;18869;55.970;37.502;2023-10-13T02:44:04;4.37;;;2.47;;
32407;SDS011;18869;55.970;37.502;2023-10-13T02:46:32;6.07;;;3.07;;
32407;SDS011;18869;55.970;37.502;2023-10-13T02:49:02;3.80;;;2.63;;
32407;SDS011;18869;55.970;37.502;2023-10-13T02:51:36;3.97;;;2.93;;
32407;SDS011;18869;55.970;37.502;2023-10-13T02:54:08;4.07;;;2.80;;
32407;SDS011;18869;55.970;37.502;2023-10-13T02:56:36;5.47;;;3.10;;
32407;SDS011;18869;55.970;37.502;2023-10-13T02:59:14;5.83;;;3.47;;
32407;SDS011;18869;55.970;37.502;2023-10-13T03:01:42;7.27;;;3.67;;
32407;SDS011;18869;55.970;37.502;2023-10-13T03:04:09;3.43;;;2.97;;
32407;SDS011;18869;55.970;37.502;2023-10-13T03:06:38;4.27;;;3.60;;
32407;SDS011;18869;55.970;37.502;2023-10-13T03:09:07;3.90;;;3.10;;
32407;SDS011;18869;55.970;37.502;2023-10-13T03:11:40;6.30;;;3.53;;
32407;SDS011;18869;55.970;37.502;2023-10-13T03:14:09;4.77;;;3.37;;
32407;SDS011;18869;55.970;37.502;2023-10-13T03:16:51;5.63;;;3.27;;
32407;SDS011;18869;55.970;37.502;2023-10-13T03:19:19;8.40;;;3.23;;
32407;SDS011;18869;55.970;37.502;2023-10-13T03:21:47;5.73;;;3.63;;
32407;SDS011;18869;55.970;37.502;2023-10-13T03:24:21;10.43;;;4.03;;
32407;SDS011;18869;55.970;37.502;2023-10-13T03:27:01;6.87;;;3.40;;
32407;SDS011;18869;55.970;37.502;2023-10-13T03:29:34;7.20;;;3.07;;
32407;SDS011;18869;55.970;37.502;2023-10-13T03:32:03;5.67;;;3.17;;
32407;SDS011;18869;55.970;37.502;2023-10-13T03:34:32;6.90;;;3.43;;
32407;SDS011;18869;55.970;37.502;2023-10-13T03:37:01;8.83;;;3.33;;
32407;SDS011;18869;55.970;37.502;2023-10-13T03:39:37;6.13;;;3.53;;
32407;SDS011;18869;55.970;37.502;2023-10-13T03:42:11;5.33;;;3.10;;
32407;SDS011;18869;55.970;37.502;2023-10-13T03:44:44;7.10;;;3.40;;
32407;SDS011;18869;55.970;37.502;2023-10-13T03:47:14;7.57;;;3.30;;
32407;SDS011;18869;55.970;37.502;2023-10-13T03:49:44;6.83;;;3.43;;
32407;SDS011;18869;55.970;37.502;2023-10-13T03:52:17;6.00;;;3.13;;
32407;SDS011;18869;55.970;37.502;2023-10-13T03:54:48;5.50;;;3.63;;
32407;SDS011;18869;55.970;37.502;2023-10-13T03:57:18;8.70;;;3.73;;
32407;SDS011;18869;55.970;37.502;2023-10-13T03:59:47;4.50;;;3.17;;
32407;SDS011;18869;55.970;37.502;2023-10-13T04:02:15;10.20;;;4.20;;
32407;SDS011;18869;55.970;37.502;2023-10-13T04:04:47;11.83;;;3.80;;
32407;SDS011;18869;55.970;37.502;2023-10-13T04:07:15;3.43;;;3.13;;
32407;SDS011;18869;55.970;37.502;2023-10-13T04:10:01;4.53;;;3.50;;
32407;SDS011;18869;55.970;37.502;2023-10-13T04:12:47;5.17;;;2.83;;
32407;SDS011;18869;55.970;37.502;2023-10-13T04:15:33;8.63;;;4.27;;
32407;SDS011;18869;55.970;37.502;2023-10-13T04:18:08;7.17;;;3.43;;
32407;SDS011;18869;55.970;37.502;2023-10-13T04:21:00;4.47;;;3.57;;
32407;SDS011;18869;55.970;37.502;2023-10-13T04:23:44;5.33;;;3.27;;
32407;SDS011;18869;55.970;37.502;2023-10-13T04:26:30;6.13;;;3.10;;
32407;SDS011;18869;55.970;37.502;2023-10-13T04:29:03;9.37;;;3.30;;
32407;SDS011;18869;55.970;37.502;2023-10-13T04:31:37;11.03;;;3.87;;
32407;SDS011;18869;55.970;37.502;2023-10-13T04:34:22;9.10;;;3.40;;
32407;SDS011;18869;55.970;37.502;2023-10-13T04:36:54;7.63;;;3.50;;
32407;SDS011;18869;55.970;37.502;2023-10-13T04:39:48;7.63;;;3.50;;
32407;SDS011;18869;55.970;37.502;2023-10-13T04:42:23;4.87;;;3.27;;
32407;SDS011;18869;55.970;37.502;2023-10-13T04:45:06;4.67;;;3.40;;
32407;SDS011;18869;55.970;37.502;2023-10-13T04:47:53;6.30;;;3.37;;
32407;SDS011;18869;55.970;37.502;2023-10-13T04:50:25;8.23;;;3.30;;
32407;SDS011;18869;55.970;37.502;2023-10-13T04:53:01;9.47;;;3.30;;
32407;SDS011;18869;55.970;37.502;2023-10-13T04:55:28;5.67;;;2.90;;
32407;SDS011;18869;55.970;37.502;2023-10-13T04:58:26;8.43;;;3.53;;
32407;SDS011;18869;55.970;37.502;2023-10-13T05:01:27;7.97;;;2.90;;
32407;SDS011;18869;55.970;37.502;2023-10-13T05:04:13;8.30;;;2.80;;
32407;SDS011;18869;55.970;37.502;2023-10-13T05:07:04;4.10;;;3.10;;
32407;SDS011;18869;55.970;37.502;2023-10-13T05:09:50;6.97;;;3.10;;
32407;SDS011;18869;55.970;37.502;2023-10-13T05:12:35;6.33;;;3.03;;
32407;SDS011;18869;55.970;37.502;2023-10-13T05:15:21;7.13;;;3.67;;
32407;SDS011;18869;55.970;37.502;2023-10-13T05:18:07;6.23;;;2.93;;
32407;SDS011;18869;55.970;37.502;2023-10-13T05:20:54;5.27;;;2.57;;
32407;SDS011;18869;55.970;37.502;2023-10-13T05:23:41;3.50;;;1.90;;
32407;SDS011;18869;55.970;37.502;2023-10-13T05:26:23;5.20;;;2.63;;
32407;SDS011;18869;55.970;37.502;2023-10-13T05:29:10;2.53;;;2.00;;
32407;SDS011;18869;55.970;37.502;2023-10-13T05:31:56;6.63;;;2.70;;
32407;SDS011;18869;55.970;37.502;2023-10-13T05:34:41;5.73;;;2.43;;
32407;SDS011;18869;55.970;37.502;2023-10-13T05:37:29;3.77;;;2.60;;
32407;SDS011;18869;55.970;37.502;2023-10-13T05:40:15;6.83;;;2.40;;
32407;SDS011;18869;55.970;37.502;2023-10-13T05:43:00;4.10;;;2.13;;
32407;SDS011;18869;55.970;37.502;2023-10-13T05:45:46;5.67;;;2.80;;
32407;SDS011;18869;55.970;37.502;2023-10-13T05:48:37;6.57;;;2.20;;
32407;SDS011;18869;55.970;37.502;2023-10-13T05:51:35;3.53;;;2.53;;
32407;SDS011;18869;55.970;37.502;2023-10-13T05:54:14;3.57;;;2.33;;
32407;SDS011;18869;55.970;37.502;2023-10-13T05:56:59;6.53;;;2.20;;
32407;SDS011;18869;55.970;37.502;2023-10-13T05:59:48;3.83;;;2.10;;
32407;SDS011;18869;55.970;37.502;2023-10-13T06:02:33;4.23;;;2.10;;
32407;SDS011;18869;55.970;37.502;2023-10-13T06:05:18;4.50;;;2.10;;
32407;SDS011;18869;55.970;37.502;2023-10-13T06:08:04;3.70;;;1.90;;
32407;SDS011;18869;55.970;37.502;2023-10-13T06:10:50;3.50;;;1.50;;
32407;SDS011;18869;55.970;37.502;2023-10-13T06:13:47;1.87;;;1.40;;
32407;SDS011;18869;55.970;37.502;2023-10-13T06:16:33;2.20;;;1.70;;
32407;SDS011;18869;55.970;37.502;2023-10-13T06:19:19;3.20;;;1.60;;
32407;SDS011;18869;55.970;37.502;2023-10-13T06:22:04;4.43;;;1.40;;
32407;SDS011;18869;55.970;37.502;2023-10-13T06:24:50;2.97;;;1.50;;
32407;SDS011;18869;55.970;37.502;2023-10-13T06:27:35;1.90;;;1.30;;
32407;SDS011;18869;55.970;37.502;2023-10-13T06:30:21;3.90;;;1.50;;
32407;SDS011;18869;55.970;37.502;2023-10-13T06:32:49;2.83;;;1.50;;
32407;SDS011;18869;55.970;37.502;2023-10-13T06:35:17;3.83;;;1.80;;
32407;SDS011;18869;55.970;37.502;2023-10-13T06:37:50;4.70;;;1.43;;
32407;SDS011;18869;55.970;37.502;2023-10-13T06:40:18;2.50;;;1.50;;
32407;SDS011;18869;55.970;37.502;2023-10-13T06:43:00;3.50;;;1.33;;
32407;SDS011;18869;55.970;37.502;2023-10-13T06:45:43;4.20;;;1.30;;
32407;SDS011;18869;55.970;37.502;2023-10-13T06:48:17;2.40;;;1.10;;
32407;SDS011;18869;55.970;37.502;2023-10-13T06:50:49;3.87;;;1.37;;
32407;SDS011;18869;55.970;37.502;2023-10-13T06:53:18;2.53;;;1.10;;
32407;SDS011;18869;55.970;37.502;2023-10-13T06:55:46;2.20;;;1.00;;
32407;SDS011;18869;55.970;37.502;2023-10-13T06:58:15;3.40;;;1.50;;
32407;SDS011;18869;55.970;37.502;2023-10-13T07:00:54;1.77;;;1.13;;
32407;SDS011;18869;55.970;37.502;2023-10-13T07:03:21;2.30;;;1.20;;
32407;SDS011;18869;55.970;37.502;2023-10-13T07:05:49;3.77;;;1.20;;
32407;SDS011;18869;55.970;37.502;2023-10-13T07:08:18;1.27;;;0.83;;
32407;SDS011;18869;55.970;37.502;2023-10-13T07:10:47;3.97;;;1.00;;
32407;SDS011;18869;55.970;37.502;2023-10-13T07:13:18;1.33;;;1.00;;
32407;SDS011;18869;55.970;37.502;2023-10-13T07:15:48;2.17;;;1.30;;
32407;SDS011;18869;55.970;37.502;2023-10-13T07:18:15;2.50;;;1.40;;
32407;SDS011;18869;55.970;37.502;2023-10-13T07:20:49;2.30;;;1.10;;
32407;SDS011;18869;55.970;37.502;2023-10-13T07:23:16;2.20;;;1.13;;
32407;SDS011;18869;55.970;37.502;2023-10-13T07:25:50;4.07;;;1.20;;
32407;SDS011;18869;55.970;37.502;2023-10-13T07:28:19;3.17;;;1.23;;
32407;SDS011;18869;55.970;37.502;2023-10-13T07:30:46;4.50;;;1.47;;
32407;SDS011;18869;55.970;37.502;2023-10-13T07:33:38;2.43;;;1.27;;
32407;SDS011;18869;55.970;37.502;2023-10-13T07:36:07;1.30;;;1.20;;
32407;SDS011;18869;55.970;37.502;2023-10-13T07:38:42;2.70;;;1.20;;
32407;SDS011;18869;55.970;37.502;2023-10-13T07:41:14;1.80;;;1.20;;
32407;SDS011;18869;55.970;37.502;2023-10-13T07:43:48;3.83;;;2.43;;
32407;SDS011;18869;55.970;37.502;2023-10-13T07:46:16;2.73;;;1.40;;
32407;SDS011;18869;55.970;37.502;2023-10-13T07:48:51;2.63;;;1.60;;
32407;SDS011;18869;55.970;37.502;2023-10-13T07:51:20;1.83;;;1.23;;
32407;SDS011;18869;55.970;37.502;2023-10-13T07:53:48;1.80;;;1.03;;
32407;SDS011;18869;55.970;37.502;2023-10-13T07:56:16;2.77;;;0.80;;
32407;SDS011;18869;55.970;37.502;2023-10-13T07:58:45;2.47;;;0.63;;
32407;SDS011;18869;55.970;37.502;2023-10-13T08:01:19;1.47;;;1.20;;
32407;SDS011;18869;55.970;37.502;2023-10-13T08:03:47;2.90;;;1.57;;
32407;SDS011;18869;55.970;37.502;2023-10-13T08:06:31;2.70;;;1.00;;
32407;SDS011;18869;55.970;37.502;2023-10-13T08:09:00;2.90;;;1.20;;
32407;SDS011;18869;55.970;37.502;2023-10-13T08:11:33;2.47;;;0.80;;
32407;SDS011;18869;55.970;37.502;2023-10-13T08:14:01;1.77;;;0.90;;
32407;SDS011;18869;55.970;37.502;2023-10-13T08:16:38;3.40;;;0.90;;
32407;SDS011;18869;55.970;37.502;2023-10-13T08:19:14;2.87;;;1.07;;
32407;SDS011;18869;55.970;37.502;2023-10-13T08:21:43;1.77;;;1.00;;
32407;SDS011;18869;55.970;37.502;2023-10-13T08:24:16;3.60;;;1.27;;
32407;SDS011;18869;55.970;37.502;2023-10-13T08:26:51;2.30;;;1.07;;
32407;SDS011;18869;55.970;37.502;2023-10-13T08:29:43;1.60;;;0.80;;
32407;SDS011;18869;55.970;37.502;2023-10-13T08:32:32;2.03;;;0.77;;
32407;SDS011;18869;55.970;37.502;2023-10-13T08:35:09;1.27;;;0.67;;
32407;SDS011;18869;55.970;37.502;2023-10-13T08:37:50;4.57;;;1.10;;
32407;SDS011;18869;55.970;37.502;2023-10-13T08:40:26;2.10;;;0.67;;
32407;SDS011;18869;55.970;37.502;2023-10-13T08:43:12;3.17;;;0.93;;
32407;SDS011;18869;55.970;37.502;2023-10-13T08:45:41;1.30;;;0.80;;
32407;SDS011;18869;55.970;37.502;2023-10-13T08:48:24;1.10;;;0.70;;
32407;SDS011;18869;55.970;37.502;2023-10-13T08:50:57;2.53;;;0.70;;
32407;SDS011;18869;55.970;37.502;2023-10-13T08:53:35;1.37;;;0.93;;
32407;SDS011;18869;55.970;37.502;2023-10-13T08:56:13;1.47;;;0.80;;
32407;SDS011;18869;55.970;37.502;2023-10-13T08:58:43;1.43;;;0.90;;
32407;SDS011;18869;55.970;37.502;2023-10-13T09:01:30;1.40;;;0.90;;
32407;SDS011;18869;55.970;37.502;2023-10-13T09:04:05;1.90;;;0.77;;
32407;SDS011;18869;55.970;37.502;2023-10-13T09:06:50;1.23;;;0.80;;
32407;SDS011;18869;55.970;37.502;2023-10-13T09:09:45;1.90;;;1.27;;
32407;SDS011;18869;55.970;37.502;2023-10-13T09:12:53;2.90;;;1.43;;
32407;SDS011;18869;55.970;37.502;2023-10-13T09:15:28;2.30;;;1.40;;
32407;SDS011;18869;55.970;37.502;2023-10-13T09:18:25;1.23;;;0.70;;
32407;SDS011;18869;55.970;37.502;2023-10-13T09:21:07;1.90;;;0.70;;
32407;SDS011;18869;55.970;37.502;2023-10-13T09:23:56;2.40;;;0.60;;
32407;SDS011;18869;55.970;37.502;2023-10-13T09:26:38;2.00;;;0.97;;
32407;SDS011;18869;55.970;37.502;2023-10-13T09:29:13;1.23;;;0.60;;
32407;SDS011;18869;55.970;37.502;2023-10-13T09:31:45;3.03;;;0.80;;
32407;SDS011;18869;55.970;37.502;2023-10-13T09:34:21;5.07;;;0.80;;
32407;SDS011;18869;55.970;37.502;2023-10-13T09:36:49;2.57;;;1.00;;
32407;SDS011;18869;55.970;37.502;2023-10-13T09:39:24;1.30;;;0.90;;
32407;SDS011;18869;55.970;37.502;2023-10-13T09:42:08;1.20;;;0.90;;
32407;SDS011;18869;55.970;37.502;2023-10-13T09:44:37;4.10;;;3.17;;
32407;SDS011;18869;55.970;37.502;2023-10-13T09:47:08;1.30;;;1.20;;
32407;SDS011;18869;55.970;37.502;2023-10-13T09:49:43;3.90;;;2.20;;
32407;SDS011;18869;55.970;37.502;2023-10-13T09:52:15;5.40;;;3.13;;
32407;SDS011;18869;55.970;37.502;2023-10-13T09:54:49;2.10;;;1.13;;
32407;SDS011;18869;55.970;37.502;2023-10-13T09:57:28;3.80;;;0.70;;
32407;SDS011;18869;55.970;37.502;2023-10-13T10:00:02;4.30;;;2.33;;
32407;SDS011;18869;55.970;37.502;2023-10-13T10:02:54;14.37;;;10.23;;
32407;SDS011;18869;55.970;37.502;2023-10-13T10:05:24;7.27;;;5.50;;
32407;SDS011;18869;55.970;37.502;2023-10-13T10:07:55;21.80;;;7.93;;
32407;SDS011;18869;55.970;37.502;2023-10-13T10:10:22;6.13;;;2.40;;
32407;SDS011;18869;55.970;37.502;2023-10-13T10:12:56;5.67;;;4.73;;
32407;SDS011;18869;55.970;37.502;2023-10-13T10:15:28;1.60;;;0.83;;
32407;SDS011;18869;55.970;37.502;2023-10-13T10:18:00;1.67;;;0.90;;
32407;SDS011;18869;55.970;37.502;2023-10-13T10:20:28;1.53;;;0.80;;
32407;SDS011;18869;55.970;37.502;2023-10-13T10:22:59;2.23;;;0.70;;
32407;SDS011;18869;55.970;37.502;2023-10-13T10:25:30;1.77;;;1.20;;
32407;SDS011;18869;55.970;37.502;2023-10-13T10:28:02;1.90;;;0.93;;
32407;SDS011;18869;55.970;37.502;2023-10-13T10:30:32;2.67;;;0.97;;
32407;SDS011;18869;55.970;37.502;2023-10-13T10:33:00;4.40;;;0.80;;
32407;SDS011;18869;55.970;37.502;2023-10-13T10:35:38;1.83;;;0.73;;
32407;SDS011;18869;55.970;37.502;2023-10-13T10:38:09;2.10;;;0.50;;
32407;SDS011;18869;55.970;37.502;2023-10-13T10:40:50;0.80;;;0.50;;
32407;SDS011;18869;55.970;37.502;2023-10-13T10:43:24;2.27;;;0.70;;
32407;SDS011;18869;55.970;37.502;2023-10-13T10:45:54;1.87;;;0.80;;
32407;SDS011;18869;55.970;37.502;2023-10-13T10:48:25;0.82;;;0.45;;
32407;SDS011;18869;55.970;37.502;2023-10-13T10:51:00;7.10;;;4.97;;
32407;SDS011;18869;55.970;37.502;2023-10-13T10:53:37;4.07;;;2.45;;
32407;SDS011;18869;55.970;37.502;2023-10-13T10:56:10;1.77;;;0.90;;
32407;SDS011;18869;55.970;37.502;2023-10-13T10:58:50;2.67;;;1.40;;
32407;SDS011;18869;55.970;37.502;2023-10-13T11:01:23;0.95;;;0.85;;
32407;SDS011;18869;55.970;37.502;2023-10-13T11:03:58;1.42;;;0.82;;
32407;SDS011;18869;55.970;37.502;2023-10-13T11:06:36;7.15;;;5.15;;
32407;SDS011;18869;55.970;37.502;2023-10-13T11:09:08;4.37;;;3.90;;
32407;SDS011;18869;55.970;37.502;2023-10-13T11:11:45;3.87;;;2.60;;
32407;SDS011;18869;55.970;37.502;2023-10-13T11:14:23;1.92;;;1.12;;
32407;SDS011;18869;55.970;37.502;2023-10-13T11:16:51;32.38;;;9.60;;
32407;SDS011;18869;55.970;37.502;2023-10-13T11:19:20;61.10;;;16.00;;
32407;SDS011;18869;55.970;37.502;2023-10-13T11:21:52;10.43;;;2.78;;
32407;SDS011;18869;55.970;37.502;2023-10-13T11:24:21;6.47;;;3.72;;
32407;SDS011;18869;55.970;37.502;2023-10-13T11:26:48;5.18;;;2.47;;
32407;SDS011;18869;55.970;37.502;2023-10-13T11:29:16;4.95;;;4.45;;
32407;SDS011;18869;55.970;37.502;2023-10-13T11:31:46;3.03;;;1.70;;
32407;SDS011;18869;55.970;37.502;2023-10-13T11:34:23;7.95;;;6.50;;
32407;SDS011;18869;55.970;37.502;2023-10-13T11:36:50;2.72;;;1.92;;
32407;SDS011;18869;55.970;37.502;2023-10-13T11:39:17;1.40;;;0.90;;
32407;SDS011;18869;55.970;37.502;2023-10-13T11:41:50;1.45;;;0.90;;
32407;SDS011;18869;55.970;37.502;2023-10-13T11:44:21;1.98;;;0.90;;
32407;SDS011;18869;55.970;37.502;2023-10-13T11:46:58;1.52;;;0.88;;
32407;SDS011;18869;55.970;37.502;2023-10-13T11:49:58;1.83;;;0.75;;
32407;SDS011;18869;55.970;37.502;2023-10-13T11:52:25;2.55;;;1.67;;
32407;SDS011;18869;55.970;37.502;2023-10-13T11:54:56;5.03;;;1.55;;
32407;SDS011;18869;55.970;37.502;2023-10-13T11:57:25;1.20;;;1.10;;
32407;SDS011;18869;55.970;37.502;2023-10-13T11:59:55;2.57;;;1.53;;
32407;SDS011;18869;55.970;37.502;2023-10-13T12:02:42;11.90;;;7.00;;
32407;SDS011;18869;55.970;37.502;2023-10-13T12:05:27;6.40;;;4.20;;
32407;SDS011;18869;55.970;37.502;2023-10-13T12:08:14;8.33;;;5.30;;
32407;SDS011;18869;55.970;37.502;2023-10-13T12:10:48;12.87;;;7.73;;
32407;SDS011;18869;55.970;37.502;2023-10-13T12:13:26;11.73;;;7.10;;
32407;SDS011;18869;55.970;37.502;2023-10-13T12:15:54;7.90;;;4.97;;
32407;SDS011;18869;55.970;37.502;2023-10-13T12:18:23;4.20;;;2.30;;
32407;SDS011;18869;55.970;37.502;2023-10-13T12:20:54;7.13;;;1.60;;
32407;SDS011;18869;55.970;37.502;2023-10-13T12:23:23;3.73;;;2.30;;
32407;SDS011;18869;55.970;37.502;2023-10-13T12:25:57;1.33;;;1.10;;
32407;SDS011;18869;55.970;37.502;2023-10-13T12:28:25;2.07;;;1.17;;
32407;SDS011;18869;55.970;37.502;2023-10-13T12:30:55;2.07;;;1.30;;
32407;SDS011;18869;55.970;37.502;2023-10-13T12:33:25;1.77;;;1.10;;
32407;SDS011;18869;55.970;37.502;2023-10-13T12:36:04;3.40;;;2.00;;
32407;SDS011;18869;55.970;37.502;2023-10-13T12:38:41;2.50;;;1.80;;
32407;SDS011;18869;55.970;37.502;2023-10-13T12:41:26;5.90;;;1.67;;
32407;SDS011;18869;55.970;37.502;2023-10-13T12:44:11;4.33;;;2.37;;
32407;SDS011;18869;55.970;37.502;2023-10-13T12:46:56;5.17;;;2.90;;
32407;SDS011;18869;55.970;37.502;2023-10-13T12:49:44;6.00;;;3.00;;
32407;SDS011;18869;55.970;37.502;2023-10-13T12:52:32;2.20;;;2.00;;
32407;SDS011;18869;55.970;37.502;2023-10-13T12:54:59;3.53;;;2.00;;
32407;SDS011;18869;55.970;37.502;2023-10-13T12:57:33;1.77;;;1.60;;
32407;SDS011;18869;55.970;37.502;2023-10-13T13:00:00;2.60;;;1.73;;
32407;SDS011;18869;55.970;37.502;2023-10-13T13:02:42;2.33;;;1.57;;
32407;SDS011;18869;55.970;37.502;2023-10-13T13:05:10;4.13;;;1.63;;
32407;SDS011;18869;55.970;37.502;2023-10-13T13:07:38;1.90;;;1.50;;
32407;SDS011;18869;55.970;37.502;2023-10-13T13:10:13;1.70;;;1.50;;
32407;SDS011;18869;55.970;37.502;2023-10-13T13:12:40;4.10;;;1.63;;
32407;SDS011;18869;55.970;37.502;2023-10-13T13:15:08;3.83;;;1.60;;
32407;SDS011;18869;55.970;37.502;2023-10-13T13:17:35;2.87;;;1.37;;
32407;SDS011;18869;55.970;37.502;2023-10-13T13:20:05;2.57;;;1.60;;
32407;SDS011;18869;55.970;37.502;2023-10-13T13:22:38;2.23;;;1.77;;
32407;SDS011;18869;55.970;37.502;2023-10-13T13:25:05;2.57;;;1.70;;
32407;SDS011;18869;55.970;37.502;2023-10-13T13:27:35;5.20;;;1.83;;
32407;SDS011;18869;55.970;37.502;2023-10-13T13:30:03;2.77;;;1.60;;
32407;SDS011;18869;55.970;37.502;2023-10-13T13:32:38;3.07;;;2.07;;
32407;SDS011;18869;55.970;37.502;2023-10-13T13:35:07;1.83;;;1.60;;
32407;SDS011;18869;55.970;37.502;2023-10-13T13:37:40;3.30;;;1.70;;
32407;SDS011;18869;55.970;37.502;2023-10-13T13:40:09;2.90;;;2.00;;
32407;SDS011;18869;55.970;37.502;2023-10-13T13:42:41;2.23;;;1.90;;
32407;SDS011;18869;55.970;37.502;2023-10-13T13:45:13;6.43;;;2.53;;
32407;SDS011;18869;55.970;37.502;2023-10-13T13:47:48;4.13;;;2.53;;
32407;SDS011;18869;55.970;37.502;2023-10-13T13:50:20;9.47;;;2.87;;
32407;SDS011;18869;55.970;37.502;2023-10-13T13:52:52;5.73;;;2.67;;
32407;SDS011;18869;55.970;37.502;2023-10-13T13:55:22;10.17;;;2.67;;
32407;SDS011;18869;55.970;37.502;2023-10-13T13:57:49;4.47;;;1.93;;
32407;SDS011;18869;55.970;37.502;2023-10-13T14:00:17;6.27;;;2.20;;
32407;SDS011;18869;55.970;37.502;2023-10-13T14:03:03;3.00;;;1.97;;
32407;SDS011;18869;55.970;37.502;2023-10-13T14:05:30;6.10;;;2.23;;
32407;SDS011;18869;55.970;37.502;2023-10-13T14:07:58;2.70;;;2.20;;
32407;SDS011;18869;55.970;37.502;2023-10-13T14:10:26;6.93;;;2.60;;
32407;SDS011;18869;55.970;37.502;2023-10-13T14:13:19;6.60;;;3.70;;
32407;SDS011;18869;55.970;37.502;2023-10-13T14:15:48;6.17;;;2.87;;
32407;SDS011;18869;55.970;37.502;2023-10-13T14:18:22;6.27;;;3.03;;
32407;SDS011;18869;55.970;37.502;2023-10-13T14:20:56;7.53;;;4.27;;
32407;SDS011;18869;55.970;37.502;2023-10-13T14:23:29;6.93;;;4.23;;
32407;SDS011;18869;55.970;37.502;2023-10-13T14:25:57;4.13;;;3.03;;
32407;SDS011;18869;55.970;37.502;2023-10-13T14:28:24;3.00;;;2.70;;
32407;SDS011;18869;55.970;37.502;2023-10-13T14:31:03;7.97;;;4.10;;
32407;SDS011;18869;55.970;37.502;2023-10-13T14:33:35;8.57;;;5.53;;
32407;SDS011;18869;55.970;37.502;2023-10-13T14:36:06;14.67;;;9.10;;
32407;SDS011;18869;55.970;37.502;2023-10-13T14:38:37;8.97;;;6.10;;
32407;SDS011;18869;55.970;37.502;2023-10-13T14:41:04;8.07;;;5.00;;
32407;SDS011;18869;55.970;37.502;2023-10-13T14:43:32;6.57;;;4.80;;
32407;SDS011;18869;55.970;37.502;2023-10-13T14:45:59;8.77;;;5.60;;
32407;SDS011;18869;55.970;37.502;2023-10-13T14:48:27;5.43;;;4.20;;
32407;SDS011;18869;55.970;37.502;2023-10-13T14:50:54;5.90;;;4.47;;
32407;SDS011;18869;55.970;37.502;2023-10-13T14:53:23;14.90;;;4.90;;
32407;SDS011;18869;55.970;37.502;2023-10-13T14:55:51;7.43;;;4.23;;
32407;SDS011;18869;55.970;37.502;2023-10-13T14:58:18;6.37;;;4.83;;
32407;SDS011;18869;55.970;37.502;2023-10-13T15:00:48;11.73;;;5.13;;
32407;SDS011;18869;55.970;37.502;2023-10-13T15:03:18;7.93;;;5.23;;
32407;SDS011;18869;55.970;37.502;2023-10-13T15:05:44;9.67;;;6.00;;
32407;SDS011;18869;55.970;37.502;2023-10-13T15:08:11;7.87;;;6.37;;
32407;SDS011;18869;55.970;37.502;2023-10-13T15:10:39;8.13;;;6.00;;
32407;SDS011;18869;55.970;37.502;2023-10-13T15:13:07;10.83;;;5.87;;
32407;SDS011;18869;55.970;37.502;2023-10-13T15:15:35;6.93;;;4.33;;
32407;SDS011;18869;55.970;37.502;2023-10-13T15:18:02;11.47;;;5.33;;